createdAt,value
2022-11-10T00:00:24.281Z,99.99
2022-11-10T00:01:24.271Z,99.99
2022-11-10T00:02:24.448Z,99.99
2022-11-10T00:03:24.532Z,99.99
2022-11-10T00:04:24.357Z,99.99
2022-11-10T00:05:24.217Z,99.99
2022-11-10T00:06:24.214Z,99.99
2022-11-10T00:07:24.386Z,99.99
2022-11-10T00:08:24.179Z,99.99
2022-11-10T00:09:24.175Z,99.99
2022-11-10T00:10:24.172Z,99.99
2022-11-10T00:11:24.897Z,99.99
2022-11-10T00:12:24.143Z,99.99
2022-11-10T00:13:24.609Z,99.99
2022-11-10T00:14:24.146Z,99.99
2022-11-10T00:15:24.115Z,99.99
2022-11-10T00:16:25.032Z,99.99
2022-11-10T00:17:24.086Z,99.99
2022-11-10T00:18:24.061Z,99.99
2022-11-10T00:19:24.473Z,99.99
2022-11-10T00:20:24.188Z,99.99
2022-11-10T00:21:24.211Z,99.99
2022-11-10T00:22:26.183Z,99.99
2022-11-10T00:23:24.436Z,99.99
2022-11-10T00:24:24.057Z,99.99
2022-11-10T00:25:25.099Z,99.99
2022-11-10T00:26:23.948Z,99.99
2022-11-10T00:27:23.972Z,99.99
2022-11-10T00:28:23.931Z,99.99
2022-11-10T00:29:25.167Z,99.99
2022-11-10T00:30:24.459Z,99.99
2022-11-10T00:31:24.047Z,99.99
2022-11-10T00:32:23.978Z,99.99
2022-11-10T00:33:24.116Z,99.99
2022-11-10T00:34:24.796Z,99.99
2022-11-10T00:35:25.012Z,99.99
2022-11-10T00:36:23.836Z,99.99
2022-11-10T00:37:23.813Z,99.99
2022-11-10T00:38:24.553Z,99.99
2022-11-10T00:39:23.817Z,99.99
2022-11-10T00:40:23.772Z,99.99
2022-11-10T00:41:24.085Z,99.99
2022-11-10T00:42:23.743Z,99.99
2022-11-10T00:43:26.492Z,99.99
2022-11-10T00:44:24.553Z,99.99
2022-11-10T00:45:23.719Z,99.99
2022-11-10T00:46:23.692Z,99.99
2022-11-10T00:47:23.959Z,99.99
2022-11-10T00:48:25.139Z,99.99
2022-11-10T00:49:23.656Z,99.99
2022-11-10T00:50:23.639Z,99.99
2022-11-10T00:51:23.626Z,99.99
2022-11-10T00:52:23.613Z,99.99
2022-11-10T00:53:24.215Z,99.99
2022-11-10T00:54:23.588Z,99.99
2022-11-10T00:55:23.625Z,99.99
2022-11-10T00:56:23.561Z,99.99
2022-11-10T00:57:23.566Z,99.99
2022-11-10T00:58:23.661Z,99.99
2022-11-10T00:59:23.831Z,99.99
2022-11-10T01:00:23.536Z,99.99
2022-11-10T01:01:23.537Z,99.99
2022-11-10T01:02:23.493Z,99.99
2022-11-10T01:03:24.571Z,99.99
2022-11-10T01:04:23.460Z,99.99
2022-11-10T01:05:24.040Z,99.99
2022-11-10T01:06:23.432Z,99.99
2022-11-10T01:07:23.496Z,99.99
2022-11-10T01:08:23.522Z,99.99
2022-11-10T01:09:23.451Z,99.99
2022-11-10T01:10:23.438Z,99.99
2022-11-10T01:11:23.596Z,99.99
2022-11-10T01:12:23.428Z,99.99
2022-11-10T01:13:23.521Z,99.99
2022-11-10T01:14:23.405Z,99.99
2022-11-10T01:15:27.575Z,99.99
2022-11-10T01:16:23.317Z,99.99
2022-11-10T01:17:23.763Z,99.99
2022-11-10T01:18:23.276Z,99.99
2022-11-10T01:19:23.266Z,99.99
2022-11-10T01:20:23.247Z,99.99
2022-11-10T01:21:23.246Z,99.99
2022-11-10T01:22:23.261Z,99.99
2022-11-10T01:23:23.627Z,99.99
2022-11-10T01:24:24.163Z,99.99
2022-11-10T01:25:23.193Z,99.99
2022-11-10T01:26:23.171Z,99.99
2022-11-10T01:27:23.179Z,99.99
2022-11-10T01:28:23.329Z,99.99
2022-11-10T01:29:23.147Z,99.99
2022-11-10T01:30:23.142Z,99.99
2022-11-10T01:31:23.111Z,99.99
2022-11-10T01:32:23.092Z,99.99
2022-11-10T01:33:23.660Z,99.99
2022-11-10T01:34:23.065Z,99.99
2022-11-10T01:35:23.058Z,99.99
2022-11-10T01:36:23.046Z,99.99
2022-11-10T01:37:23.241Z,99.99
2022-11-10T01:38:23.029Z,99.99
2022-11-10T01:39:23.203Z,99.99
2022-11-10T01:40:23.019Z,99.99
2022-11-10T01:41:22.987Z,99.99
2022-11-10T01:42:22.967Z,99.99
2022-11-10T01:43:23.304Z,99.99
2022-11-10T01:44:22.952Z,99.99
2022-11-10T01:45:23.173Z,99.99
2022-11-10T01:46:22.911Z,99.99
2022-11-10T01:47:22.904Z,99.99
2022-11-10T01:48:22.952Z,99.99
2022-11-10T01:49:22.880Z,99.99
2022-11-10T01:50:22.861Z,99.99
2022-11-10T01:51:23.112Z,99.99
2022-11-10T01:52:22.843Z,99.99
2022-11-10T01:53:23.853Z,99.99
2022-11-10T01:54:22.811Z,99.99
2022-11-10T01:55:22.829Z,99.99
2022-11-10T01:56:22.788Z,99.99
2022-11-10T01:57:22.976Z,99.99
2022-11-10T01:58:22.770Z,99.99
2022-11-10T01:59:22.744Z,99.99
2022-11-10T02:00:22.739Z,99.99
2022-11-10T02:01:22.748Z,99.99
2022-11-10T02:02:22.707Z,99.99
2022-11-10T02:03:23.226Z,99.99
2022-11-10T02:04:22.686Z,99.99
2022-11-10T02:05:22.694Z,99.99
2022-11-10T02:06:22.652Z,99.99
2022-11-10T02:07:22.642Z,99.99
2022-11-10T02:08:22.812Z,99.99
2022-11-10T02:09:22.620Z,99.99
2022-11-10T02:10:22.725Z,99.99
2022-11-10T02:11:22.599Z,99.99
2022-11-10T02:12:22.582Z,99.99
2022-11-10T02:13:22.899Z,99.99
2022-11-10T02:14:22.848Z,99.99
2022-11-10T02:15:22.599Z,99.99
2022-11-10T02:16:22.521Z,99.99
2022-11-10T02:17:22.538Z,99.99
2022-11-10T02:18:22.497Z,99.99
2022-11-10T02:19:22.478Z,99.99
2022-11-10T02:20:22.748Z,99.99
2022-11-10T02:21:22.465Z,99.99
2022-11-10T02:22:22.522Z,99.99
2022-11-10T02:23:22.823Z,99.99
2022-11-10T02:24:22.426Z,99.99
2022-11-10T02:25:22.685Z,99.99
2022-11-10T02:26:22.395Z,99.99
2022-11-10T02:27:22.382Z,99.99
2022-11-10T02:28:22.375Z,99.99
2022-11-10T02:29:22.394Z,99.99
2022-11-10T02:30:27.381Z,99.99
2022-11-10T02:31:23.523Z,99.99
2022-11-10T02:32:22.394Z,99.99
2022-11-10T02:33:22.511Z,99.99
2022-11-10T02:34:22.295Z,99.99
2022-11-10T02:35:22.284Z,99.99
2022-11-10T02:36:22.280Z,99.99
2022-11-10T02:37:22.641Z,99.99
2022-11-10T02:38:22.237Z,99.99
2022-11-10T02:39:22.227Z,99.99
2022-11-10T02:40:22.214Z,99.99
2022-11-10T02:41:22.208Z,99.99
2022-11-10T02:42:22.186Z,99.99
2022-11-10T02:43:22.683Z,99.99
2022-11-10T02:44:22.251Z,99.99
2022-11-10T02:45:22.147Z,99.99
2022-11-10T02:46:22.136Z,99.99
2022-11-10T02:47:22.123Z,99.99
2022-11-10T02:48:22.112Z,99.99
2022-11-10T02:49:22.284Z,99.99
2022-11-10T02:50:22.086Z,99.99
2022-11-10T02:51:22.072Z,99.99
2022-11-10T02:52:22.052Z,99.99
2022-11-10T02:53:22.458Z,99.99
2022-11-10T02:54:22.977Z,99.99
2022-11-10T02:55:22.207Z,99.99
2022-11-10T02:56:22.085Z,99.99
2022-11-10T02:57:21.999Z,99.99
2022-11-10T02:58:21.982Z,99.99
2022-11-10T02:59:21.969Z,99.99
2022-11-10T03:00:22.201Z,99.99
2022-11-10T03:01:22.007Z,99.99
2022-11-10T03:02:21.933Z,99.99
2022-11-10T03:03:22.523Z,99.99
2022-11-10T03:04:21.905Z,99.99
2022-11-10T03:05:21.886Z,99.99
2022-11-10T03:06:21.885Z,99.99
2022-11-10T03:07:21.915Z,99.99
2022-11-10T03:08:43.866Z,99.99
2022-11-10T03:09:21.835Z,99.99
2022-11-10T03:10:21.827Z,99.99
2022-11-10T03:11:22.122Z,99.99
2022-11-10T03:12:21.856Z,99.99
2022-11-10T03:13:22.115Z,99.99
2022-11-10T03:14:21.783Z,99.99
2022-11-10T03:15:21.760Z,99.99
2022-11-10T03:16:21.810Z,99.99
2022-11-10T03:17:21.950Z,99.99
2022-11-10T03:18:21.723Z,99.99
2022-11-10T03:19:21.814Z,99.99
2022-11-10T03:20:21.696Z,99.99
2022-11-10T03:21:21.680Z,99.99
2022-11-10T03:22:21.847Z,99.99
2022-11-10T03:23:22.031Z,99.99
2022-11-10T03:24:21.646Z,99.99
2022-11-10T03:25:21.629Z,99.99
2022-11-10T03:26:21.626Z,99.99
2022-11-10T03:27:21.777Z,99.99
2022-11-10T03:28:21.596Z,99.99
2022-11-10T03:29:21.669Z,99.99
2022-11-10T03:30:21.592Z,99.99
2022-11-10T03:31:21.556Z,99.99
2022-11-10T03:32:21.724Z,99.99
2022-11-10T03:33:22.888Z,99.99
2022-11-10T03:34:21.544Z,99.99
2022-11-10T03:35:21.500Z,99.99
2022-11-10T03:36:21.490Z,99.99
2022-11-10T03:37:21.654Z,99.99
2022-11-10T03:38:21.461Z,99.99
2022-11-10T03:39:21.451Z,99.99
2022-11-10T03:40:21.499Z,99.99
2022-11-10T03:41:21.538Z,99.99
2022-11-10T03:42:21.629Z,99.99
2022-11-10T03:43:22.765Z,99.99
2022-11-10T03:44:21.558Z,99.99
2022-11-10T03:45:22.580Z,99.99
2022-11-10T03:46:21.393Z,99.99
2022-11-10T03:47:21.520Z,99.99
2022-11-10T03:48:21.338Z,99.99
2022-11-10T03:49:21.318Z,99.99
2022-11-10T03:50:21.322Z,99.99
2022-11-10T03:51:21.293Z,99.99
2022-11-10T03:52:21.471Z,99.99
2022-11-10T03:53:21.652Z,99.99
2022-11-10T03:54:21.253Z,99.99
2022-11-10T03:55:21.252Z,99.99
2022-11-10T03:56:21.231Z,99.99
2022-11-10T03:57:21.413Z,99.99
2022-11-10T03:58:21.212Z,99.99
2022-11-10T03:59:21.210Z,99.99
2022-11-10T04:00:21.273Z,99.99
2022-11-10T04:01:21.195Z,99.99
2022-11-10T04:02:21.342Z,99.99
2022-11-10T04:03:21.639Z,99.99
2022-11-10T04:04:21.131Z,99.99
2022-11-10T04:05:21.119Z,99.99
2022-11-10T04:06:21.096Z,99.99
2022-11-10T04:07:21.376Z,99.99
2022-11-10T04:08:21.090Z,99.99
2022-11-10T04:09:21.078Z,99.99
2022-11-10T04:10:21.143Z,99.99
2022-11-10T04:11:21.037Z,99.99
2022-11-10T04:12:24.839Z,99.99
2022-11-10T04:13:21.442Z,99.99
2022-11-10T04:14:20.994Z,99.99
2022-11-10T04:15:20.995Z,99.99
2022-11-10T04:16:20.999Z,99.99
2022-11-10T04:17:20.971Z,99.99
2022-11-10T04:18:21.143Z,99.99
2022-11-10T04:19:20.951Z,99.99
2022-11-10T04:20:20.912Z,99.99
2022-11-10T04:21:20.910Z,99.99
2022-11-10T04:22:20.891Z,99.99
2022-11-10T04:23:21.440Z,99.99
2022-11-10T04:24:21.048Z,99.99
2022-11-10T04:25:20.861Z,99.99
2022-11-10T04:26:20.838Z,99.99
2022-11-10T04:27:20.831Z,99.99
2022-11-10T04:28:20.818Z,99.99
2022-11-10T04:29:20.988Z,99.99
2022-11-10T04:30:20.800Z,99.99
2022-11-10T04:31:20.785Z,99.99
2022-11-10T04:32:20.771Z,99.99
2022-11-10T04:33:21.050Z,99.99
2022-11-10T04:34:20.915Z,99.99
2022-11-10T04:35:20.725Z,99.99
2022-11-10T04:36:20.734Z,99.99
2022-11-10T04:37:20.694Z,99.99
2022-11-10T04:38:20.684Z,99.99
2022-11-10T04:39:20.854Z,99.99
2022-11-10T04:40:20.654Z,99.99
2022-11-10T04:41:20.701Z,99.99
2022-11-10T04:42:20.634Z,99.99
2022-11-10T04:43:21.063Z,99.99
2022-11-10T04:44:20.781Z,99.99
2022-11-10T04:45:20.599Z,99.99
2022-11-10T04:46:20.603Z,99.99
2022-11-10T04:47:20.570Z,99.99
2022-11-10T04:48:20.599Z,99.99
2022-11-10T04:49:20.740Z,99.99
2022-11-10T04:50:21.425Z,99.99
2022-11-10T04:51:20.645Z,99.99
2022-11-10T04:52:20.504Z,99.99
2022-11-10T04:53:20.954Z,99.99
2022-11-10T04:54:20.688Z,99.99
2022-11-10T04:55:20.485Z,99.99
2022-11-10T04:56:20.579Z,99.99
2022-11-10T04:57:20.446Z,99.99
2022-11-10T04:58:20.425Z,99.99
2022-11-10T04:59:20.415Z,99.99
2022-11-10T05:00:20.575Z,99.99
2022-11-10T05:01:20.465Z,99.82
2022-11-10T05:02:21.232Z,99.61
2022-11-10T05:03:20.722Z,99.76
2022-11-10T05:04:20.349Z,99.86
2022-11-10T05:05:20.533Z,99.99
2022-11-10T05:06:20.322Z,99.96
2022-11-10T05:07:21.022Z,99.96
2022-11-10T05:08:20.364Z,99.86
2022-11-10T05:09:20.289Z,99.96
2022-11-10T05:10:20.446Z,99.86
2022-11-10T05:11:20.271Z,99.66
2022-11-10T05:12:22.420Z,99.45
2022-11-10T05:13:20.597Z,99.35
2022-11-10T05:14:20.219Z,99.25
2022-11-10T05:15:20.505Z,99.15
2022-11-10T05:16:20.197Z,99.25
2022-11-10T05:17:20.188Z,99.15
2022-11-10T05:18:20.286Z,99.25
2022-11-10T05:19:20.155Z,99.29
2022-11-10T05:20:20.815Z,99.29
2022-11-10T05:21:20.132Z,98.88
2022-11-10T05:22:20.122Z,98.99
2022-11-10T05:23:20.380Z,99.19
2022-11-10T05:24:20.175Z,99.29
2022-11-10T05:25:20.273Z,99.40
2022-11-10T05:26:20.063Z,99.40
2022-11-10T05:27:20.060Z,99.40
2022-11-10T05:28:20.040Z,99.40
2022-11-10T05:29:20.032Z,99.40
2022-11-10T05:30:20.020Z,99.50
2022-11-10T05:31:21.269Z,99.60
2022-11-10T05:32:19.992Z,99.60
2022-11-10T05:33:20.460Z,99.60
2022-11-10T05:34:19.965Z,99.50
2022-11-10T05:35:19.960Z,99.40
2022-11-10T05:36:19.936Z,98.99
2022-11-10T05:37:20.117Z,98.68
2022-11-10T05:38:19.939Z,98.68
2022-11-10T05:39:19.915Z,98.72
2022-11-10T05:40:19.888Z,98.83
2022-11-10T05:41:20.636Z,98.93
2022-11-10T05:42:20.043Z,99.03
2022-11-10T05:43:20.120Z,98.99
2022-11-10T05:44:19.954Z,98.78
2022-11-10T05:45:19.830Z,98.42
2022-11-10T05:46:19.812Z,98.21
2022-11-10T05:47:20.001Z,98.32
2022-11-10T05:48:19.790Z,98.11
2022-11-10T05:49:19.779Z,98.32
2022-11-10T05:50:19.760Z,98.21
2022-11-10T05:51:19.768Z,98.11
2022-11-10T05:52:19.752Z,98.42
2022-11-10T05:53:20.292Z,98.62
2022-11-10T05:54:19.782Z,98.62
2022-11-10T05:55:19.699Z,98.72
2022-11-10T05:56:20.577Z,98.72
2022-11-10T05:57:26.740Z,98.72
2022-11-10T05:58:19.622Z,98.52
2022-11-10T05:59:19.787Z,98.37
2022-11-10T06:00:19.580Z,98.27
2022-11-10T06:01:19.628Z,98.27
2022-11-10T06:02:19.573Z,98.27
2022-11-10T06:03:19.905Z,98.27
2022-11-10T06:04:19.727Z,98.47
2022-11-10T06:05:19.567Z,98.58
2022-11-10T06:06:19.516Z,98.68
2022-11-10T06:07:19.505Z,98.78
2022-11-10T06:08:19.476Z,98.68
2022-11-10T06:09:19.476Z,98.68
2022-11-10T06:10:19.633Z,98.88
2022-11-10T06:11:19.457Z,99.40
2022-11-10T06:12:19.424Z,99.50
2022-11-10T06:13:19.588Z,99.19
2022-11-10T06:14:19.462Z,99.19
2022-11-10T06:15:19.608Z,99.19
2022-11-10T06:16:19.406Z,99.19
2022-11-10T06:17:19.423Z,99.29
2022-11-10T06:18:19.380Z,99.35
2022-11-10T06:19:19.735Z,98.99
2022-11-10T06:20:19.328Z,98.68
2022-11-10T06:21:19.323Z,98.68
2022-11-10T06:22:19.304Z,98.78
2022-11-10T06:23:19.537Z,98.88
2022-11-10T06:24:19.303Z,99.09
2022-11-10T06:25:19.449Z,99.19
2022-11-10T06:26:19.246Z,99.40
2022-11-10T06:27:19.257Z,99.29
2022-11-10T06:28:19.224Z,99.40
2022-11-10T06:29:24.095Z,99.60
2022-11-10T06:30:20.392Z,99.60
2022-11-10T06:31:19.195Z,99.60
2022-11-10T06:32:19.194Z,99.70
2022-11-10T06:33:19.381Z,99.80
2022-11-10T06:34:19.148Z,99.91
2022-11-10T06:35:19.448Z,99.91
2022-11-10T06:36:19.138Z,99.99
2022-11-10T06:37:19.992Z,99.99
2022-11-10T06:38:19.102Z,99.80
2022-11-10T06:39:19.108Z,99.99
2022-11-10T06:40:19.080Z,99.99
2022-11-10T06:41:24.224Z,99.99
2022-11-10T06:42:20.039Z,99.91
2022-11-10T06:43:19.211Z,99.80
2022-11-10T06:44:19.039Z,99.70
2022-11-10T06:45:19.008Z,99.70
2022-11-10T06:46:19.178Z,99.80
2022-11-10T06:47:18.982Z,99.91
2022-11-10T06:48:18.967Z,99.91
2022-11-10T06:49:18.966Z,99.80
2022-11-10T06:50:18.996Z,99.70
2022-11-10T06:51:19.177Z,99.50
2022-11-10T06:52:18.925Z,99.50
2022-11-10T06:53:22.971Z,99.40
2022-11-10T06:54:19.897Z,99.40
2022-11-10T06:55:18.884Z,99.40
2022-11-10T06:56:19.056Z,99.40
2022-11-10T06:57:18.851Z,99.40
2022-11-10T06:58:18.884Z,99.40
2022-11-10T06:59:18.893Z,99.29
2022-11-10T07:00:18.850Z,99.19
2022-11-10T07:01:22.464Z,99.19
2022-11-10T07:02:18.980Z,99.09
2022-11-10T07:03:18.793Z,98.99
2022-11-10T07:04:20.310Z,99.04
2022-11-10T07:05:18.751Z,98.83
2022-11-10T07:06:18.792Z,98.83
2022-11-10T07:07:18.738Z,98.83
2022-11-10T07:08:18.890Z,98.94
2022-11-10T07:09:18.709Z,98.94
2022-11-10T07:10:18.685Z,99.04
2022-11-10T07:11:18.684Z,99.15
2022-11-10T07:12:18.707Z,99.15
2022-11-10T07:13:19.110Z,99.25
2022-11-10T07:14:18.635Z,99.35
2022-11-10T07:15:18.625Z,99.35
2022-11-10T07:16:24.172Z,99.35
2022-11-10T07:17:19.603Z,99.35
2022-11-10T07:18:18.598Z,99.25
2022-11-10T07:19:18.764Z,99.20
2022-11-10T07:20:18.611Z,98.99
2022-11-10T07:21:18.550Z,98.99
2022-11-10T07:22:18.570Z,98.90
2022-11-10T07:23:18.529Z,98.90
2022-11-10T07:24:18.522Z,98.90
2022-11-10T07:25:18.691Z,98.90
2022-11-10T07:26:18.488Z,98.79
2022-11-10T07:27:18.480Z,98.69
2022-11-10T07:28:18.508Z,98.69
2022-11-10T07:29:18.479Z,98.69
2022-11-10T07:30:18.497Z,98.79
2022-11-10T07:31:18.677Z,98.79
2022-11-10T07:32:18.420Z,98.90
2022-11-10T07:33:18.451Z,98.99
2022-11-10T07:34:18.375Z,99.10
2022-11-10T07:35:18.375Z,99.10
2022-11-10T07:36:18.364Z,99.10
2022-11-10T07:37:18.534Z,99.10
2022-11-10T07:38:18.333Z,98.99
2022-11-10T07:39:18.326Z,99.10
2022-11-10T07:40:18.332Z,99.10
2022-11-10T07:41:18.353Z,99.10
2022-11-10T07:42:18.273Z,98.99
2022-11-10T07:43:18.543Z,98.99
2022-11-10T07:44:18.253Z,98.99
2022-11-10T07:45:18.297Z,98.90
2022-11-10T07:46:18.229Z,98.99
2022-11-10T07:47:18.226Z,98.99
2022-11-10T07:48:18.204Z,98.99
2022-11-10T07:49:18.400Z,98.99
2022-11-10T07:50:18.181Z,99.10
2022-11-10T07:51:18.174Z,99.20
2022-11-10T07:52:18.157Z,99.30
2022-11-10T07:53:18.156Z,99.30
2022-11-10T07:54:18.124Z,99.30
2022-11-10T07:55:18.386Z,99.30
2022-11-10T07:56:18.097Z,99.30
2022-11-10T07:57:18.099Z,99.41
2022-11-10T07:58:18.076Z,99.41
2022-11-10T07:59:18.064Z,99.51
2022-11-10T08:00:18.051Z,99.51
2022-11-10T08:01:18.333Z,99.51
2022-11-10T08:02:18.033Z,99.61
2022-11-10T08:03:18.029Z,99.61
2022-11-10T08:04:18.004Z,99.51
2022-11-10T08:05:17.991Z,99.26
2022-11-10T08:06:18.020Z,99.15
2022-11-10T08:07:18.247Z,98.95
2022-11-10T08:08:17.952Z,98.74
2022-11-10T08:09:17.941Z,98.33
2022-11-10T08:10:17.920Z,98.24
2022-11-10T08:11:18.154Z,98.24
2022-11-10T08:12:17.893Z,98.24
2022-11-10T08:13:17.898Z,98.24
2022-11-10T08:14:17.871Z,98.33
2022-11-10T08:15:17.856Z,98.19
2022-11-10T08:16:17.851Z,98.08
2022-11-10T08:17:18.014Z,97.88
2022-11-10T08:18:17.822Z,97.67
2022-11-10T08:19:17.815Z,97.78
2022-11-10T08:20:17.794Z,97.78
2022-11-10T08:21:17.783Z,97.67
2022-11-10T08:22:18.037Z,97.67
2022-11-10T08:23:17.771Z,97.67
2022-11-10T08:24:17.739Z,97.67
2022-11-10T08:25:17.730Z,97.67
2022-11-10T08:26:17.722Z,97.57
2022-11-10T08:27:17.704Z,97.47
2022-11-10T08:28:17.870Z,97.27
2022-11-10T08:29:17.691Z,97.02
2022-11-10T08:30:17.698Z,96.92
2022-11-10T08:31:17.678Z,97.02
2022-11-10T08:32:17.651Z,96.92
2022-11-10T08:33:17.767Z,96.92
2022-11-10T08:34:17.825Z,96.81
2022-11-10T08:35:17.601Z,96.81
2022-11-10T08:36:17.597Z,96.71
2022-11-10T08:37:17.575Z,96.51
2022-11-10T08:38:17.570Z,96.51
2022-11-10T08:39:36.289Z,96.51
2022-11-10T08:40:18.834Z,96.20
2022-11-10T08:41:17.534Z,96.10
2022-11-10T08:42:17.517Z,95.95
2022-11-10T08:43:17.502Z,95.95
2022-11-10T08:44:20.695Z,95.85
2022-11-10T08:45:17.473Z,95.95
2022-11-10T08:46:17.743Z,95.54
2022-11-10T08:47:17.461Z,95.34
2022-11-10T08:48:17.455Z,95.23
2022-11-10T08:49:17.421Z,95.07
2022-11-10T08:50:17.421Z,95.48
2022-11-10T08:51:17.392Z,95.79
2022-11-10T08:52:17.569Z,95.48
2022-11-10T08:53:17.371Z,95.48
2022-11-10T08:54:17.359Z,95.28
2022-11-10T08:55:17.363Z,95.28
2022-11-10T08:56:17.335Z,95.18
2022-11-10T08:57:17.313Z,95.18
2022-11-10T08:58:17.576Z,94.67
2022-11-10T08:59:17.298Z,94.67
2022-11-10T09:00:17.288Z,95.32
2022-11-10T09:01:17.263Z,95.69
2022-11-10T09:02:17.256Z,95.89
2022-11-10T09:03:17.245Z,95.48
2022-11-10T09:04:17.554Z,95.38
2022-11-10T09:05:17.217Z,94.56
2022-11-10T09:06:17.207Z,94.97
2022-11-10T09:07:17.266Z,94.97
2022-11-10T09:08:17.179Z,94.77
2022-11-10T09:09:17.162Z,94.67
2022-11-10T09:10:17.445Z,93.85
2022-11-10T09:11:17.131Z,93.95
2022-11-10T09:12:17.131Z,94.06
2022-11-10T09:13:17.112Z,94.06
2022-11-10T09:14:17.099Z,93.95
2022-11-10T09:15:17.088Z,94.32
2022-11-10T09:16:17.349Z,94.52
2022-11-10T09:17:17.057Z,94.62
2022-11-10T09:18:17.048Z,94.62
2022-11-10T09:19:20.082Z,94.42
2022-11-10T09:20:17.017Z,93.70
2022-11-10T09:21:17.004Z,93.60
2022-11-10T09:22:17.209Z,93.09
2022-11-10T09:23:16.979Z,93.19
2022-11-10T09:24:16.966Z,93.29
2022-11-10T09:25:16.988Z,93.29
2022-11-10T09:26:16.944Z,93.45
2022-11-10T09:27:16.935Z,93.45
2022-11-10T09:28:17.191Z,93.25
2022-11-10T09:29:16.904Z,93.15
2022-11-10T09:30:18.228Z,93.25
2022-11-10T09:31:16.912Z,93.66
2022-11-10T09:32:16.871Z,93.76
2022-11-10T09:33:16.855Z,93.05
2022-11-10T09:34:17.030Z,93.25
2022-11-10T09:35:16.820Z,93.05
2022-11-10T09:36:16.818Z,93.05
2022-11-10T09:37:16.798Z,93.25
2022-11-10T09:38:16.787Z,93.15
2022-11-10T09:39:16.773Z,93.15
2022-11-10T09:40:17.029Z,93.05
2022-11-10T09:41:16.748Z,92.54
2022-11-10T09:42:16.748Z,92.33
2022-11-10T09:43:16.752Z,92.64
2022-11-10T09:44:16.707Z,92.84
2022-11-10T09:45:16.693Z,93.05
2022-11-10T09:46:16.878Z,93.25
2022-11-10T09:47:42.421Z,92.94
2022-11-10T09:48:17.654Z,92.23
2022-11-10T09:49:16.643Z,92.64
2022-11-10T09:50:16.637Z,92.54
2022-11-10T09:51:16.642Z,92.23
2022-11-10T09:52:17.102Z,91.88
2022-11-10T09:53:16.595Z,91.88
2022-11-10T09:54:16.610Z,91.88
2022-11-10T09:55:16.564Z,91.06
2022-11-10T09:56:16.559Z,91.16
2022-11-10T09:57:16.544Z,91.37
2022-11-10T09:58:16.821Z,91.16
2022-11-10T09:59:16.519Z,91.27
2022-11-10T10:00:16.503Z,91.57
2022-11-10T10:01:16.537Z,91.06
2022-11-10T10:02:16.487Z,90.75
2022-11-10T10:03:16.465Z,90.45
2022-11-10T10:04:16.757Z,90.45
2022-11-10T10:05:16.450Z,90.55
2022-11-10T10:06:16.430Z,90.75
2022-11-10T10:07:16.522Z,90.75
2022-11-10T10:08:16.400Z,90.96
2022-11-10T10:09:16.385Z,91.27
2022-11-10T10:10:17.762Z,90.66
2022-11-10T10:11:16.365Z,90.55
2022-11-10T10:12:16.351Z,90.41
2022-11-10T10:13:16.331Z,90.14
2022-11-10T10:14:16.331Z,90.00
2022-11-10T10:15:16.309Z,90.14
2022-11-10T10:16:16.661Z,90.41
2022-11-10T10:17:16.281Z,90.00
2022-11-10T10:18:16.271Z,89.90
2022-11-10T10:19:16.277Z,90.20
2022-11-10T10:20:16.250Z,90.20
2022-11-10T10:21:16.231Z,90.20
2022-11-10T10:22:16.409Z,90.31
2022-11-10T10:23:16.209Z,90.10
2022-11-10T10:24:21.497Z,89.79
2022-11-10T10:25:17.181Z,89.69
2022-11-10T10:26:16.177Z,89.79
2022-11-10T10:27:16.157Z,90.10
2022-11-10T10:28:16.326Z,90.41
2022-11-10T10:29:16.135Z,90.51
2022-11-10T10:30:16.138Z,90.61
2022-11-10T10:31:16.105Z,90.71
2022-11-10T10:32:16.096Z,90.51
2022-11-10T10:33:16.267Z,89.79
2022-11-10T10:34:16.080Z,89.69
2022-11-10T10:35:16.072Z,89.79
2022-11-10T10:36:16.048Z,89.28
2022-11-10T10:37:16.042Z,89.08
2022-11-10T10:38:16.022Z,89.18
2022-11-10T10:39:16.191Z,89.18
2022-11-10T10:40:15.990Z,89.28
2022-11-10T10:41:20.945Z,89.49
2022-11-10T10:42:16.968Z,89.39
2022-11-10T10:43:15.982Z,88.67
2022-11-10T10:44:15.949Z,88.37
2022-11-10T10:45:16.158Z,88.57
2022-11-10T10:46:15.917Z,88.67
2022-11-10T10:47:15.913Z,88.88
2022-11-10T10:48:15.898Z,88.37
2022-11-10T10:49:31.577Z,88.47
2022-11-10T10:50:17.071Z,88.47
2022-11-10T10:51:15.854Z,88.06
2022-11-10T10:52:15.846Z,87.65
2022-11-10T10:53:15.831Z,87.76
2022-11-10T10:54:15.817Z,87.82
2022-11-10T10:55:15.814Z,87.82
2022-11-10T10:56:15.988Z,87.41
2022-11-10T10:57:15.776Z,87.20
2022-11-10T10:58:15.765Z,87.30
2022-11-10T10:59:15.754Z,87.51
2022-11-10T11:00:15.742Z,87.61
2022-11-10T11:01:15.885Z,87.51
2022-11-10T11:02:15.908Z,87.51
2022-11-10T11:03:15.708Z,87.30
2022-11-10T11:04:15.691Z,86.55
2022-11-10T11:05:15.670Z,86.55
2022-11-10T11:06:15.671Z,86.35
2022-11-10T11:07:15.850Z,86.15
2022-11-10T11:08:15.640Z,86.15
2022-11-10T11:09:15.629Z,86.35
2022-11-10T11:10:15.655Z,87.00
2022-11-10T11:11:15.597Z,88.12
2022-11-10T11:12:15.587Z,88.53
2022-11-10T11:13:15.809Z,88.22
2022-11-10T11:14:15.800Z,88.32
2022-11-10T11:15:15.545Z,88.12
2022-11-10T11:16:15.536Z,88.43
2022-11-10T11:17:15.574Z,87.61
2022-11-10T11:18:15.511Z,87.61
2022-11-10T11:19:36.683Z,87.51
2022-11-10T11:20:15.534Z,87.51
2022-11-10T11:21:15.492Z,87.92
2022-11-10T11:22:15.464Z,88.43
2022-11-10T11:23:15.455Z,89.04
2022-11-10T11:24:15.629Z,88.32
2022-11-10T11:25:15.429Z,88.02
2022-11-10T11:26:15.422Z,87.71
2022-11-10T11:27:15.401Z,87.71
2022-11-10T11:28:15.409Z,88.43
2022-11-10T11:29:15.380Z,88.28
2022-11-10T11:30:15.603Z,87.98
2022-11-10T11:31:15.346Z,88.18
2022-11-10T11:32:15.344Z,87.98
2022-11-10T11:33:15.317Z,87.06
2022-11-10T11:34:15.309Z,86.96
2022-11-10T11:35:15.297Z,86.65
2022-11-10T11:36:15.487Z,86.35
2022-11-10T11:37:19.187Z,86.76
2022-11-10T11:38:15.264Z,86.45
2022-11-10T11:39:15.249Z,86.35
2022-11-10T11:40:15.325Z,86.15
2022-11-10T11:41:15.224Z,85.90
2022-11-10T11:42:15.576Z,86.21
2022-11-10T11:43:15.194Z,85.90
2022-11-10T11:44:15.182Z,85.84
2022-11-10T11:45:15.179Z,85.84
2022-11-10T11:46:15.167Z,86.15
2022-11-10T11:47:15.142Z,85.84
2022-11-10T11:48:15.349Z,85.84
2022-11-10T11:49:15.120Z,86.15
2022-11-10T11:50:15.188Z,86.45
2022-11-10T11:51:15.098Z,86.86
2022-11-10T11:52:15.082Z,86.82
2022-11-10T11:53:15.069Z,86.82
2022-11-10T11:54:15.416Z,86.21
2022-11-10T11:55:15.090Z,85.69
2022-11-10T11:56:15.025Z,85.60
2022-11-10T11:57:15.019Z,85.74
2022-11-10T11:58:22.478Z,86.00
2022-11-10T11:59:14.983Z,85.80
2022-11-10T12:00:15.534Z,85.49
2022-11-10T12:01:14.964Z,85.39
2022-11-10T12:02:14.991Z,85.19
2022-11-10T12:03:14.940Z,85.19
2022-11-10T12:04:14.931Z,85.49
2022-11-10T12:05:14.939Z,85.28
2022-11-10T12:06:15.173Z,85.60
2022-11-10T12:07:14.966Z,85.08
2022-11-10T12:08:15.621Z,84.74
2022-11-10T12:09:14.864Z,84.84
2022-11-10T12:10:14.858Z,84.23
2022-11-10T12:11:14.838Z,84.23
2022-11-10T12:12:15.196Z,84.43
2022-11-10T12:13:14.813Z,84.74
2022-11-10T12:14:14.803Z,85.14
2022-11-10T12:15:14.784Z,84.53
2022-11-10T12:16:14.781Z,84.74
2022-11-10T12:17:15.311Z,83.62
2022-11-10T12:18:15.559Z,83.82
2022-11-10T12:19:14.802Z,83.62
2022-11-10T12:20:14.723Z,83.92
2022-11-10T12:21:14.706Z,84.74
2022-11-10T12:22:14.694Z,84.84
2022-11-10T12:23:15.744Z,84.53
2022-11-10T12:24:14.684Z,83.11
2022-11-10T12:25:14.671Z,83.45
2022-11-10T12:26:15.412Z,83.65
2022-11-10T12:27:14.643Z,83.56
2022-11-10T12:28:14.633Z,83.65
2022-11-10T12:29:14.804Z,84.06
2022-11-10T12:30:14.621Z,84.98
2022-11-10T12:31:14.594Z,84.88
2022-11-10T12:32:14.569Z,84.78
2022-11-10T12:33:14.560Z,85.49
2022-11-10T12:34:15.300Z,85.05
2022-11-10T12:35:14.806Z,84.03
2022-11-10T12:36:14.541Z,83.96
2022-11-10T12:37:14.549Z,83.86
2022-11-10T12:38:15.297Z,84.17
2022-11-10T12:39:14.475Z,84.88
2022-11-10T12:40:14.493Z,83.92
2022-11-10T12:41:14.892Z,83.92
2022-11-10T12:42:14.444Z,83.86
2022-11-10T12:43:15.642Z,83.86
2022-11-10T12:44:15.394Z,83.35
2022-11-10T12:45:14.436Z,83.65
2022-11-10T12:46:14.413Z,84.17
2022-11-10T12:47:17.166Z,84.47
2022-11-10T12:48:14.483Z,84.17
2022-11-10T12:49:14.351Z,84.78
2022-11-10T12:50:14.383Z,84.58
2022-11-10T12:51:14.546Z,84.47
2022-11-10T12:52:14.344Z,84.23